Time;durP1;ratioP1;P1;durP2;ratioP2;P2;SDS_P1;SDS_P2;PMS_P1;PMS_P2;Temp;Humidity;BMP_temperature;BMP_pressure;BME280_temperature;BME280_humidity;BME280_pressure;Samples;Min_cycle;Max_cycle;Signal;HPM_P1;HPM_P2
2020/12/04 00:00:27;;;;;;;44.50;22.33;;;;;;;1.94;76.74;99474.87;1708039;80;20967;-77
2020/12/04 00:02:53;;;;;;;45.93;22.87;;;;;;;1.90;76.80;99471.69;1725465;80;25698;-77
2020/12/04 00:05:19;;;;;;;49.00;24.23;;;;;;;1.97;76.83;99462.92;1717573;80;24559;-76
2020/12/04 00:07:44;;;;;;;42.57;22.47;;;;;;;1.93;76.92;99468.03;1723087;80;21026;-76
2020/12/04 00:10:10;;;;;;;42.27;23.07;;;;;;;1.97;76.86;99466.82;1724567;80;21360;-76
2020/12/04 00:12:37;;;;;;;45.43;23.47;;;;;;;1.98;76.83;99471.09;1724159;80;21045;-76
2020/12/04 00:15:04;;;;;;;44.63;21.75;;;;;;;1.91;77.16;99456.88;1726630;80;21077;-76
2020/12/04 00:17:30;;;;;;;46.37;23.70;;;;;;;1.91;77.16;99456.88;1719468;80;21142;-76
2020/12/04 00:19:55;;;;;;;44.73;23.40;;;;;;;1.86;77.44;99465.52;1702543;81;22044;-76
2020/12/04 00:22:21;;;;;;;43.97;22.73;;;;;;;1.84;77.61;99453.11;1735545;80;23403;-76
2020/12/04 00:24:47;;;;;;;46.73;23.20;;;;;;;1.86;77.73;99452.02;1724460;80;21198;-76
2020/12/04 00:27:13;;;;;;;49.70;23.87;;;;;;;1.79;77.94;99446.47;1723630;80;25888;-77
2020/12/04 00:29:38;;;;;;;47.57;24.43;;;;;;;1.69;78.42;99437.69;1721221;80;27214;-75
2020/12/04 00:32:04;;;;;;;45.17;23.07;;;;;;;1.69;78.61;99432.48;1707129;80;22147;-76
2020/12/04 00:34:30;;;;;;;46.23;23.57;;;;;;;1.71;78.57;99435.83;1714529;80;20966;-76
2020/12/04 00:36:56;;;;;;;45.43;24.20;;;;;;;1.70;78.92;99435.45;1717115;80;20938;-76
2020/12/04 00:39:21;;;;;;;51.60;24.63;;;;;;;1.65;78.88;99445.84;1707527;80;25910;-76
2020/12/04 00:41:47;;;;;;;46.60;22.80;;;;;;;1.66;79.00;99444.43;1712447;80;25076;-76
2020/12/04 00:44:13;;;;;;;50.57;23.80;;;;;;;1.73;78.89;99443.03;1720344;80;21259;-75
2020/12/04 00:46:38;;;;;;;49.40;23.73;;;;;;;1.81;78.66;99442.93;1717111;80;21592;-75
2020/12/04 00:49:04;;;;;;;47.57;23.70;;;;;;;1.78;78.62;99454.39;1730042;80;21586;-75
2020/12/04 00:51:30;;;;;;;45.03;23.13;;;;;;;1.80;78.64;99456.39;1715492;80;25341;-75
2020/12/04 00:53:56;;;;;;;47.85;24.05;;;;;;;1.85;78.41;99444.33;1718292;81;21534;-75
2020/12/04 00:56:22;;;;;;;49.23;23.07;;;;;;;1.82;78.42;99446.72;1730734;80;21249;-75
2020/12/04 00:58:48;;;;;;;45.20;22.33;;;;;;;1.83;78.50;99441.84;1720691;80;20926;-75
2020/12/04 01:01:14;;;;;;;46.53;23.50;;;;;;;1.79;78.53;99443.87;1715394;80;21121;-76
2020/12/04 01:03:40;;;;;;;50.45;24.67;;;;;;;1.85;78.41;99441.73;1713310;80;21125;-75
2020/12/04 01:06:06;;;;;;;45.97;23.50;;;;;;;1.88;78.26;99434.98;1722475;80;25081;-75
2020/12/04 01:08:34;;;;;;;44.70;23.27;;;;;;;1.96;78.15;99430.03;1714276;81;21201;-75
2020/12/04 01:10:59;;;;;;;;;;;;;;;1.93;78.09;99421.16;1715823;80;21228;-75
2020/12/04 01:13:25;;;;;;;46.80;21.60;;;;;;;2.00;77.98;99419.72;1726700;80;20470;-75
2020/12/04 01:15:50;;;;;;;44.07;22.63;;;;;;;1.97;77.87;99418.20;1713300;81;26136;-75
2020/12/04 01:18:17;;;;;;;48.73;23.20;;;;;;;1.96;77.95;99414.41;1721476;81;27670;-75
2020/12/04 01:20:42;;;;;;;45.15;23.83;;;;;;;1.92;78.02;99424.70;1729524;80;21207;-75
2020/12/04 01:23:08;;;;;;;49.10;23.67;;;;;;;1.90;78.00;99421.40;1707667;80;20988;-75
2020/12/04 01:25:34;;;;;;;49.57;24.07;;;;;;;1.90;78.10;99416.19;1710562;82;20943;-75
2020/12/04 01:27:59;;;;;;;49.83;23.47;;;;;;;1.92;77.97;99419.49;1709200;80;23746;-75
2020/12/04 01:30:25;;;;;;;51.13;23.67;;;;;;;2.11;77.55;99411.07;1735437;81;22923;-76
2020/12/04 01:32:51;;;;;;;47.63;23.07;;;;;;;2.17;77.25;99412.38;1712168;81;21444;-76
2020/12/04 01:35:17;;;;;;;48.37;24.03;;;;;;;2.07;77.17;99409.19;1714550;80;20931;-77
2020/12/04 01:37:42;;;;;;;44.63;22.43;;;;;;;2.12;77.24;99407.04;1704308;82;20954;-76
2020/12/04 01:40:08;;;;;;;44.90;22.00;;;;;;;2.06;77.29;99406.22;1713726;82;24939;-76
2020/12/04 01:42:34;;;;;;;44.30;22.17;;;;;;;2.05;77.25;99399.83;1724363;82;25010;-76
2020/12/04 01:45:00;;;;;;;46.37;22.47;;;;;;;2.10;77.25;99405.05;1735395;82;21365;-76
2020/12/04 01:47:26;;;;;;;46.97;23.17;;;;;;;2.04;77.37;99402.92;1734819;82;20935;-76
2020/12/04 01:49:51;;;;;;;47.70;24.30;;;;;;;2.05;77.39;99389.41;1721128;82;21065;-76
2020/12/04 01:52:17;;;;;;;45.90;22.70;;;;;;;2.01;77.71;99381.50;1727459;81;26853;-76
2020/12/04 01:54:46;;;;;;;47.03;22.77;;;;;;;2.03;77.61;99380.42;1726485;82;23164;-75
2020/12/04 01:57:12;;;;;;;43.85;22.93;;;;;;;2.04;77.60;99363.86;1726615;82;21192;-75
2020/12/04 01:59:38;;;;;;;49.70;23.33;;;;;;;2.03;77.55;99355.68;1720617;82;20962;-76
2020/12/04 02:02:20;;;;;;;41.57;21.80;;;;;;;2.01;77.65;99368.00;1731645;82;21700;-75
2020/12/04 02:04:47;;;;;;;43.55;22.50;;;;;;;2.01;77.72;99356.28;1707668;82;20990;-75
2020/12/04 02:07:52;;;;;;;43.85;21.80;;;;;;;2.03;77.74;99346.56;1705815;82;21122;-76
2020/12/04 02:10:29;;;;;;;46.63;23.02;;;;;;;1.97;77.86;99334.03;1710974;82;21125;-76
2020/12/04 02:12:55;;;;;;;48.25;22.90;;;;;;;1.93;78.10;99339.14;1726739;82;21121;-76
2020/12/04 02:15:21;;;;;;;45.00;23.07;;;;;;;1.94;77.96;99333.81;1733972;82;21588;-76
2020/12/04 02:17:47;;;;;;;50.53;23.90;;;;;;;1.96;78.14;99342.81;1731413;82;25214;-76
2020/12/04 02:20:13;;;;;;;47.47;22.60;;;;;;;1.88;78.23;99343.86;1689065;82;23157;-76
2020/12/04 02:22:38;;;;;;;43.67;22.57;;;;;;;1.88;78.34;99337.36;1723245;82;21394;-76
2020/12/04 02:25:09;;;;;;;46.30;22.67;;;;;;;1.93;78.27;99343.05;1711516;82;21238;-76
2020/12/04 02:27:47;;;;;;;46.28;21.65;;;;;;;1.90;78.21;99340.69;1726717;82;21168;-76
2020/12/04 02:30:18;;;;;;;43.63;21.60;;;;;;;1.89;78.35;99341.62;1705445;82;21101;-76
2020/12/04 02:32:43;;;;;;;44.58;21.15;;;;;;;1.85;78.37;99337.59;1693811;82;21118;-76
2020/12/04 02:35:09;;;;;;;43.87;21.23;;;;;;;1.85;78.41;99337.59;1724860;82;21196;-76
2020/12/04 02:37:35;;;;;;;46.60;22.00;;;;;;;1.85;78.43;99331.09;1732427;82;20919;-76
2020/12/04 02:40:01;;;;;;;41.47;21.57;;;;;;;1.84;78.44;99326.84;1705796;82;22961;-77
2020/12/04 02:42:31;;;;;;;42.40;21.80;;;;;;;1.91;78.37;99337.11;1703151;83;25541;-76
2020/12/04 02:44:54;;;;;;;;;;;;;;;1.91;78.32;99339.72;1706900;82;21196;-74
2020/12/04 02:47:27;;;;;;;39.40;19.92;;;;;;;1.84;78.42;99338.08;1708721;83;21304;-77
2020/12/04 02:49:53;;;;;;;40.23;19.67;;;;;;;1.88;78.40;99333.45;1712540;83;21010;-76
2020/12/04 02:52:23;;;;;;;41.10;21.07;;;;;;;1.93;78.38;99324.83;1710140;82;21802;-77
2020/12/04 02:54:49;;;;;;;38.60;19.67;;;;;;;1.83;78.61;99319.98;1711088;82;21568;-75
2020/12/04 02:57:15;;;;;;;41.42;21.12;;;;;;;1.85;78.67;99316.77;1710167;82;21120;-77
2020/12/04 02:59:41;;;;;;;42.30;21.47;;;;;;;1.87;78.61;99314.89;1712125;82;21239;-76
2020/12/04 03:02:06;;;;;;;40.13;20.77;;;;;;;1.83;78.82;99314.77;1712064;82;20950;-77
2020/12/04 03:04:32;;;;;;;47.27;21.13;;;;;;;1.85;78.87;99316.77;1713063;82;20989;-77
2020/12/04 03:06:58;;;;;;;43.43;21.20;;;;;;;1.86;79.04;99314.53;1707403;82;23228;-77
2020/12/04 03:09:23;;;;;;;41.87;20.60;;;;;;;1.82;79.16;99310.50;1714815;82;25820;-77
2020/12/04 03:11:49;;;;;;;42.37;21.17;;;;;;;1.84;79.09;99308.63;1714028;82;21260;-77
2020/12/04 03:14:15;;;;;;;43.43;20.60;;;;;;;1.94;78.89;99303.88;1710807;82;21069;-75
2020/12/04 03:16:41;;;;;;;38.70;20.13;;;;;;;1.97;78.77;99294.97;1708010;82;20959;-75
2020/12/04 03:19:06;;;;;;;42.03;19.73;;;;;;;2.11;78.58;99297.32;1713695;82;25671;-75
2020/12/04 03:21:32;;;;;;;39.57;19.77;;;;;;;2.19;78.31;99295.86;1710044;82;24081;-76
2020/12/04 03:23:58;;;;;;;40.40;19.57;;;;;;;2.22;78.04;99294.31;1713704;81;21881;-75
2020/12/04 03:26:24;;;;;;;39.50;20.83;;;;;;;2.17;78.02;99301.68;1711077;81;22661;-75
2020/12/04 03:28:49;;;;;;;42.63;21.13;;;;;;;2.21;78.02;99304.40;1713353;82;21057;-75
2020/12/04 03:31:15;;;;;;;41.63;20.73;;;;;;;2.22;77.86;99300.82;1711007;82;28590;-75
2020/12/04 03:33:41;;;;;;;39.87;20.17;;;;;;;2.24;77.82;99299.77;1713787;81;23243;-75
2020/12/04 03:36:07;;;;;;;39.17;19.60;;;;;;;2.22;77.92;99295.61;1713348;82;21095;-75
2020/12/04 03:38:32;;;;;;;36.77;19.07;;;;;;;2.15;78.06;99298.71;1714809;82;21639;-74
2020/12/04 03:40:58;;;;;;;35.13;18.97;;;;;;;2.15;78.06;99283.08;1723836;82;21006;-75
2020/12/04 03:43:24;;;;;;;37.63;20.73;;;;;;;2.17;78.11;99280.84;1711270;82;25684;-75
2020/12/04 03:45:50;;;;;;;41.00;20.20;;;;;;;2.12;78.19;99284.63;1716103;82;22141;-75
2020/12/04 03:48:15;;;;;;;37.67;19.63;;;;;;;2.10;78.32;99277.43;1705532;82;21203;-75
2020/12/04 03:50:41;;;;;;;38.33;19.83;;;;;;;1.98;78.64;99274.50;1731146;82;21754;-75
2020/12/04 03:53:07;;;;;;;38.63;19.03;;;;;;;1.97;78.83;99274.14;1725462;82;21075;-75
2020/12/04 03:55:33;;;;;;;41.65;20.52;;;;;;;2.03;78.75;99275.44;1720180;81;21719;-75
2020/12/04 03:57:59;;;;;;;41.00;21.30;;;;;;;2.06;78.62;99276.02;1730699;82;24080;-75
2020/12/04 04:00:25;;;;;;;38.60;20.77;;;;;;;2.04;78.77;99287.03;1715200;82;21451;-75
2020/12/04 04:02:51;;;;;;;40.65;20.57;;;;;;;2.03;78.66;99276.26;1705904;82;21058;-75
2020/12/04 04:05:17;;;;;;;37.53;19.03;;;;;;;2.00;78.76;99272.59;1716068;82;20994;-75
2020/12/04 04:07:43;;;;;;;41.77;20.13;;;;;;;2.03;78.80;99278.86;1735584;81;28030;-75
2020/12/04 04:10:08;;;;;;;39.53;20.57;;;;;;;2.02;78.88;99274.63;1730229;82;24161;-75
2020/12/04 04:12:34;;;;;;;39.07;19.50;;;;;;;2.01;78.85;99272.95;1730396;82;21399;-76
2020/12/04 04:15:00;;;;;;;42.33;21.03;;;;;;;2.04;78.86;99264.90;1736133;82;21252;-76
2020/12/04 04:17:26;;;;;;;35.83;19.10;;;;;;;2.01;79.01;99261.23;1736141;82;20986;-76
2020/12/04 04:19:52;;;;;;;38.83;20.97;;;;;;;1.87;79.57;99253.72;1733374;82;25982;-76
2020/12/04 04:22:17;;;;;;;41.40;19.70;;;;;;;1.87;79.78;99245.91;1718087;82;24316;-76
2020/12/04 04:24:43;;;;;;;34.20;17.93;;;;;;;1.89;79.75;99254.41;1723304;82;21577;-76
2020/12/04 04:27:10;;;;;;;39.93;19.37;;;;;;;1.90;79.80;99249.08;1728964;82;21010;-77
2020/12/04 04:29:35;;;;;;;40.00;19.87;;;;;;;1.90;79.89;99254.77;1735086;82;21541;-76
2020/12/04 04:32:01;;;;;;;37.73;20.07;;;;;;;1.89;79.88;99253.11;1730494;82;25258;-76
2020/12/04 04:34:27;;;;;;;38.50;19.93;;;;;;;1.90;79.84;99255.59;1738221;82;24831;-76
2020/12/04 04:36:53;;;;;;;35.67;18.30;;;;;;;1.86;79.97;99261.98;1735038;82;21244;-76
2020/12/04 04:39:18;;;;;;;38.73;19.40;;;;;;;1.83;80.18;99257.50;1723100;82;20930;-76
2020/12/04 04:41:44;;;;;;;34.63;19.13;;;;;;;1.87;80.28;99255.02;1703818;82;21050;-75
2020/12/04 04:44:11;;;;;;;39.73;19.77;;;;;;;1.98;79.97;99256.28;1711120;82;23941;-76
2020/12/04 04:46:46;;;;;;;39.85;19.42;;;;;;;1.94;80.07;99253.56;1717574;80;21199;-79
2020/12/04 04:49:13;;;;;;;35.35;19.10;;;;;;;1.91;80.01;99261.16;1719462;80;22047;-78
2020/12/04 04:51:41;;;;;;;37.58;19.42;;;;;;;1.91;80.05;99257.70;1727939;81;21946;-79
2020/12/04 04:54:08;;;;;;;36.80;18.67;;;;;;;1.92;79.94;99258.07;1711471;82;21110;-78
2020/12/04 04:56:34;;;;;;;38.05;17.60;;;;;;;1.85;80.36;99249.94;1730058;81;21176;-78
2020/12/04 04:59:00;;;;;;;32.47;16.83;;;;;;;1.81;80.55;99247.70;1736116;82;23733;-79
2020/12/04 05:01:25;;;;;;;32.20;18.13;;;;;;;1.87;80.33;99252.41;1727813;81;21212;-76
2020/12/04 05:03:58;;;;;;;37.37;18.83;;;;;;;1.93;80.33;99248.02;1736070;81;21493;-76
2020/12/04 05:06:33;;;;;;;38.23;19.15;;;;;;;1.93;80.23;99247.53;1736659;81;21136;-76
2020/12/04 05:08:58;;;;;;;33.70;17.90;;;;;;;2.02;80.16;99245.98;1737361;82;21175;-76
2020/12/04 05:11:24;;;;;;;34.27;18.43;;;;;;;2.14;79.83;99250.20;1736852;81;27002;-76
2020/12/04 05:13:50;;;;;;;32.23;17.60;;;;;;;1.99;79.81;99250.13;1737587;82;21997;-76
2020/12/04 05:16:29;;;;;;;35.27;18.57;;;;;;;2.04;79.91;99250.58;1716035;82;21112;-76
2020/12/04 05:18:54;;;;;;;33.58;17.85;;;;;;;2.04;79.89;99252.37;1736370;82;21092;-76
2020/12/04 05:21:28;;;;;;;34.47;18.57;;;;;;;2.02;79.93;99257.70;1736623;82;27772;-76
2020/12/04 05:23:54;;;;;;;33.02;17.65;;;;;;;2.01;80.04;99254.73;1736026;81;21173;-76
2020/12/04 05:26:37;;;;;;;35.90;18.47;;;;;;;1.97;80.10;99255.92;1736332;82;21144;-76
2020/12/04 05:29:04;;;;;;;33.60;17.27;;;;;;;1.97;80.34;99248.11;1736699;82;21195;-76
2020/12/04 05:31:35;;;;;;;33.25;17.57;;;;;;;2.03;80.20;99251.52;1737209;82;21108;-77
2020/12/04 05:34:00;;;;;;;33.70;16.90;;;;;;;2.01;80.15;99249.52;1737008;82;21195;-76
2020/12/04 05:36:30;;;;;;;33.38;17.95;;;;;;;2.00;80.17;99255.67;1715796;82;26997;-75
2020/12/04 05:38:58;;;;;;;34.38;17.90;;;;;;;2.03;80.22;99245.49;1737114;82;21192;-76
2020/12/04 05:41:25;;;;;;;35.85;17.82;;;;;;;1.99;80.31;99243.62;1718057;81;21088;-75
2020/12/04 05:43:53;;;;;;;35.05;18.20;;;;;;;1.98;80.46;99239.36;1707496;82;21030;-75
2020/12/04 05:46:24;;;;;;;34.23;17.52;;;;;;;1.92;80.59;99247.66;1707220;82;21108;-75
2020/12/04 05:49:00;;;;;;;32.98;16.87;;;;;;;1.95;80.71;99263.85;1707727;82;21124;-78
2020/12/04 05:51:30;;;;;;;34.65;17.85;;;;;;;2.03;80.53;99259.33;1702451;82;21256;-75
2020/12/04 05:53:56;;;;;;;33.83;16.82;;;;;;;2.04;80.49;99259.69;1709191;82;21065;-76
2020/12/04 05:56:22;;;;;;;33.00;18.43;;;;;;;2.01;80.62;99256.52;1706985;82;21045;-77
2020/12/04 05:58:49;;;;;;;36.10;18.87;;;;;;;1.95;80.79;99255.22;1707831;82;21065;-76
2020/12/04 06:01:17;;;;;;;33.13;16.50;;;;;;;1.96;80.87;99255.59;1708012;82;21119;-76
2020/12/04 06:03:45;;;;;;;30.97;16.97;;;;;;;1.99;80.87;99248.83;1707536;82;21267;-76
2020/12/04 06:06:11;;;;;;;30.90;16.95;;;;;;;1.94;80.99;99245.75;1736925;82;21100;-76
2020/12/04 06:08:39;;;;;;;34.33;17.23;;;;;;;1.90;81.11;99249.56;1712073;80;21070;-76
2020/12/04 06:11:05;;;;;;;30.43;15.80;;;;;;;1.93;81.20;99249.32;1729580;81;21095;-75
2020/12/04 06:13:37;;;;;;;31.80;17.93;;;;;;;1.83;81.55;99246.61;1731577;81;25895;-75
2020/12/04 06:16:15;;;;;;;35.80;17.73;;;;;;;1.92;81.53;99254.98;1730148;81;21389;-76
2020/12/04 06:18:42;;;;;;;32.53;16.73;;;;;;;1.86;81.70;99255.95;1734971;81;21161;-77
2020/12/04 06:21:08;;;;;;;31.62;17.02;;;;;;;1.89;81.68;99250.51;1731832;82;21125;-76
2020/12/04 06:23:33;;;;;;;35.37;17.77;;;;;;;1.91;81.63;99251.20;1737623;81;24934;-75
2020/12/04 06:26:03;;;;;;;35.27;18.00;;;;;;;1.91;81.65;99251.20;1735951;81;22853;-75
2020/12/04 06:28:38;;;;;;;33.65;17.80;;;;;;;1.92;81.67;99254.17;1734709;82;21593;-75
2020/12/04 06:31:13;;;;;;;36.30;17.55;;;;;;;1.91;81.75;99253.80;1713718;81;21207;-78
2020/12/04 06:33:49;;;;;;;32.55;16.35;;;;;;;1.87;81.87;99258.44;1705210;83;21181;-77
2020/12/04 06:36:36;;;;;;;34.73;17.50;;;;;;;1.93;81.81;99264.95;1703053;83;21113;-77
2020/12/04 06:39:03;;;;;;;36.33;17.40;;;;;;;2.00;81.52;99263.97;1738388;81;21524;-77
2020/12/04 06:41:45;;;;;;;36.75;17.40;;;;;;;2.04;81.46;99270.11;1716201;82;21683;-77
2020/12/04 06:44:25;;;;;;;34.43;18.17;;;;;;;2.02;81.52;99269.41;1706874;82;21187;-77
2020/12/04 06:46:55;;;;;;;29.32;16.25;;;;;;;2.03;81.55;99265.02;1707458;82;21136;-77
2020/12/04 06:52:04;;;;;;;34.15;17.65;;;;;;;2.01;81.58;99275.56;1708325;81;21310;-77
2020/12/04 06:54:32;;;;;;;39.53;18.90;;;;;;;2.02;81.62;99274.63;1703698;82;21249;-77
2020/12/04 06:56:58;;;;;;;34.08;17.90;;;;;;;2.08;81.40;99274.13;1709457;82;21580;-77
2020/12/04 06:59:30;;;;;;;36.20;18.55;;;;;;;2.05;81.60;99280.89;1709855;82;21111;-77
2020/12/04 07:02:01;;;;;;;33.38;17.25;;;;;;;2.15;81.36;99284.87;1729258;82;21100;-77
2020/12/04 07:04:29;;;;;;;32.53;16.60;;;;;;;2.25;81.07;99290.16;1737707;81;21240;-77
2020/12/04 07:07:08;;;;;;;33.67;17.85;;;;;;;2.31;80.75;99288.36;1736601;81;21186;-76
2020/12/04 07:09:34;;;;;;;32.23;17.87;;;;;;;2.35;80.50;99291.08;1738511;81;21120;-76
2020/12/04 07:12:01;;;;;;;38.00;18.45;;;;;;;2.29;80.85;99284.58;1738141;82;21116;-77
2020/12/04 07:14:27;;;;;;;34.90;17.90;;;;;;;2.30;80.84;99295.81;1737472;81;21100;-76
2020/12/04 07:16:54;;;;;;;33.27;18.23;;;;;;;2.34;80.72;99294.63;1738059;82;26046;-75
2020/12/04 07:19:20;;;;;;;36.93;17.17;;;;;;;2.37;80.51;99298.28;1736740;82;21173;-77
2020/12/04 07:21:46;;;;;;;31.87;17.37;;;;;;;2.40;80.61;99292.83;1734404;82;23197;-76
2020/12/04 07:24:11;;;;;;;32.43;17.43;;;;;;;2.45;80.36;99289.36;1737612;82;21719;-76
2020/12/04 07:26:41;;;;;;;35.23;17.53;;;;;;;2.55;80.07;99284.23;1736981;82;29052;-76
2020/12/04 07:29:08;;;;;;;34.53;18.85;;;;;;;2.61;79.78;99282.88;1735460;80;21132;-76
2020/12/04 07:31:34;;;;;;;34.92;18.67;;;;;;;2.59;79.71;99287.41;1737014;82;21195;-76
2020/12/04 07:34:00;;;;;;;37.43;20.53;;;;;;;2.56;79.79;99285.05;1737632;82;24243;-76
2020/12/04 07:36:27;;;;;;;35.70;18.65;;;;;;;2.60;79.72;99278.65;1737324;82;21013;-76
2020/12/04 07:38:58;;;;;;;35.60;17.50;;;;;;;2.59;79.82;99279.59;1723212;82;21114;-76
2020/12/04 07:41:31;;;;;;;35.43;18.30;;;;;;;2.57;79.91;99280.20;1721721;82;21117;-76
2020/12/04 07:44:01;;;;;;;35.83;18.50;;;;;;;2.62;79.77;99269.73;1721202;81;21248;-76
2020/12/04 07:46:27;;;;;;;34.70;18.27;;;;;;;2.74;79.39;99283.54;1711202;82;21181;-76
2020/12/04 07:49:11;;;;;;;34.65;19.12;;;;;;;2.80;79.17;99283.03;1708242;82;21127;-76
2020/12/04 07:51:39;;;;;;;36.70;19.65;;;;;;;2.82;79.13;99283.72;1715388;81;21104;-76
2020/12/04 07:54:08;;;;;;;38.45;20.35;;;;;;;2.74;79.20;99280.11;1737638;81;21100;-76
2020/12/04 07:56:33;;;;;;;38.00;19.70;;;;;;;2.82;79.00;99282.91;1734992;82;21153;-76
2020/12/04 07:59:03;;;;;;;37.53;18.93;;;;;;;2.81;79.14;99288.60;1737496;81;20953;-76
2020/12/04 08:01:29;;;;;;;31.10;17.92;;;;;;;2.70;79.32;99283.43;1737674;82;21223;-76
2020/12/04 08:03:55;;;;;;;36.80;18.82;;;;;;;2.81;79.12;99288.60;1737306;81;21172;-77
2020/12/04 08:06:27;;;;;;;32.20;18.97;;;;;;;2.87;78.94;99297.22;1737355;82;26482;-77
2020/12/04 08:09:17;;;;;;;37.65;18.90;;;;;;;2.92;78.65;99295.98;1735214;82;21112;-76
2020/12/04 08:11:55;;;;;;;35.55;18.48;;;;;;;2.95;78.64;99294.42;1737351;82;21632;-76
2020/12/04 08:14:29;;;;;;;34.03;18.42;;;;;;;3.07;78.49;99292.09;1736300;81;21104;-76
2020/12/04 08:16:57;;;;;;;36.58;18.98;;;;;;;3.15;78.10;99300.09;1714940;82;21107;-76
2020/12/04 08:19:30;;;;;;;37.93;19.77;;;;;;;3.20;78.05;99291.87;1723674;81;21129;-77
2020/12/04 08:22:08;;;;;;;35.55;18.02;;;;;;;3.19;77.89;99286.33;1740315;80;22207;-77
2020/12/04 08:24:51;;;;;;;;;;;;;;;3.26;77.63;99293.15;1737356;81;21061;-75
2020/12/04 08:27:17;;;;;;;34.50;18.65;;;;;;;3.31;77.38;99285.75;1708382;82;20502;-77
2020/12/04 08:29:46;;;;;;;36.63;18.77;;;;;;;3.37;77.27;99285.22;1708898;83;21561;-77
2020/12/04 08:32:19;;;;;;;33.90;19.00;;;;;;;3.37;77.24;99287.83;1707840;83;21186;-77
2020/12/04 08:34:46;;;;;;;34.13;19.90;;;;;;;3.33;77.08;99294.29;1707885;82;21760;-77
2020/12/04 08:37:12;;;;;;;31.02;19.45;;;;;;;3.41;77.05;99291.84;1708506;83;21040;-76
2020/12/04 08:39:47;;;;;;;35.55;19.32;;;;;;;3.31;77.22;99280.53;1707350;82;21243;-77
2020/12/04 08:42:31;;;;;;;32.95;19.23;;;;;;;3.29;77.26;99295.50;1712734;81;22179;-76
2020/12/04 08:45:06;;;;;;;34.45;19.35;;;;;;;3.31;77.36;99290.51;1752490;81;21143;-75
2020/12/04 08:47:41;;;;;;;32.05;19.45;;;;;;;3.36;77.16;99297.45;1737251;82;21541;-75
2020/12/04 08:50:13;;;;;;;37.93;20.77;;;;;;;3.31;77.35;99296.19;1737221;81;21030;-76
2020/12/04 08:52:49;;;;;;;35.80;19.65;;;;;;;3.36;77.52;99296.16;1724783;80;21124;-75
2020/12/04 08:55:26;;;;;;;38.73;19.90;;;;;;;3.48;77.08;99283.00;1728024;80;21192;-76
2020/12/04 08:57:54;;;;;;;31.05;18.62;;;;;;;3.55;77.06;99291.97;1737478;81;21104;-76
2020/12/04 09:00:27;;;;;;;37.50;20.52;;;;;;;3.46;77.22;99287.05;1730892;81;21584;-76
2020/12/04 09:02:51;;;;;;;36.55;20.43;;;;;;;3.56;77.00;99293.14;1737231;82;21553;-76
2020/12/04 09:05:17;;;;;;;32.43;19.90;;;;;;;3.54;76.88;99282.02;1738297;81;22326;-76
2020/12/04 09:07:43;;;;;;;40.55;20.88;;;;;;;3.64;76.87;99294.27;1732650;81;21130;-75
2020/12/04 09:10:12;;;;;;;33.70;20.00;;;;;;;3.60;76.83;99288.47;1736787;82;21093;-75
2020/12/04 09:12:37;;;;;;;34.55;19.92;;;;;;;3.61;76.94;99289.31;1737309;81;21145;-75
2020/12/04 09:15:06;;;;;;;35.67;19.00;;;;;;;3.57;77.13;99306.55;1733560;82;22856;-75
2020/12/04 09:17:32;;;;;;;33.20;19.02;;;;;;;3.57;77.16;99307.00;1714969;82;21095;-76
2020/12/04 09:19:58;;;;;;;32.73;19.75;;;;;;;3.67;77.05;99305.75;1707032;82;27274;-75
2020/12/04 09:22:24;;;;;;;41.42;20.20;;;;;;;3.68;77.05;99306.08;1712202;81;26866;-76
2020/12/04 09:24:49;;;;;;;35.70;19.82;;;;;;;3.64;77.07;99308.14;1714539;81;21108;-76
2020/12/04 09:27:15;;;;;;;34.20;20.40;;;;;;;3.67;77.09;99305.75;1731888;81;27241;-76
2020/12/04 09:29:41;;;;;;;37.23;20.20;;;;;;;3.81;76.81;99312.36;1734427;82;21111;-76
2020/12/04 09:32:16;;;;;;;31.57;18.30;;;;;;;3.82;76.91;99315.33;1725741;81;28918;-77
2020/12/04 09:34:43;;;;;;;32.20;19.82;;;;;;;3.88;76.52;99305.17;1737688;81;21121;-77
2020/12/04 09:37:17;;;;;;;34.98;20.00;;;;;;;3.93;76.49;99304.30;1709177;82;21251;-77
2020/12/04 09:39:46;;;;;;;35.17;20.17;;;;;;;4.03;76.44;99291.74;1705377;82;21892;-77
2020/12/04 09:42:14;;;;;;;34.00;19.62;;;;;;;3.98;76.35;99293.91;1712940;81;21974;-76
2020/12/04 09:44:41;;;;;;;36.85;20.45;;;;;;;4.02;76.34;99287.47;1735248;80;21212;-75
2020/12/04 09:47:06;;;;;;;45.30;20.45;;;;;;;3.92;76.53;99279.14;1744867;80;21148;-78
2020/12/04 09:49:32;;;;;;;34.65;19.32;;;;;;;3.92;76.68;99267.38;1723908;80;21623;-81
2020/12/04 09:51:58;;;;;;;31.17;19.37;;;;;;;3.95;76.57;99272.34;1723740;80;26016;-75
2020/12/04 09:54:31;;;;;;;34.53;20.63;;;;;;;4.11;76.46;99270.98;1732653;80;22865;-76
2020/12/04 09:56:57;;;;;;;34.83;20.57;;;;;;;4.18;76.00;99265.56;1717030;80;21284;-75
2020/12/04 09:59:25;;;;;;;35.65;21.05;;;;;;;4.20;75.98;99254.48;1733279;80;21205;-76
2020/12/04 10:01:53;;;;;;;31.60;18.67;;;;;;;4.22;76.07;99260.88;1702769;81;21197;-77
2020/12/04 10:04:19;;;;;;;;;;;;;;;4.19;76.03;99254.13;1729353;80;21204;-77
2020/12/04 10:06:45;;;;;;;33.37;17.97;;;;;;;4.23;75.93;99258.12;1717189;80;20180;-78
2020/12/04 10:09:12;;;;;;;36.40;19.62;;;;;;;4.31;75.78;99246.50;1719685;80;21104;-79
2020/12/04 10:11:38;;;;;;;36.03;19.60;;;;;;;4.37;75.57;99244.31;1718081;80;21129;-78
2020/12/04 10:14:04;;;;;;;29.48;18.20;;;;;;;4.33;75.66;99246.36;1713277;80;21166;-77
2020/12/04 10:16:30;;;;;;;31.60;19.30;;;;;;;4.37;75.54;99254.77;1733104;81;25422;-77
2020/12/04 10:18:57;;;;;;;33.93;20.30;;;;;;;4.42;75.57;99249.94;1717798;81;22856;-76
2020/12/04 10:21:23;;;;;;;;;;;;;;;4.44;75.47;99253.23;1724940;80;21085;-77
2020/12/04 10:23:49;;;;;;;30.75;17.77;;;;;;;4.48;75.40;99259.84;1704551;81;20276;-77
2020/12/04 10:26:15;;;;;;;34.48;18.73;;;;;;;4.52;75.34;99244.70;1726820;80;22070;-78
2020/12/04 10:28:41;;;;;;;32.57;19.27;;;;;;;4.52;75.23;99244.70;1711166;81;25801;-77
2020/12/04 10:31:06;;;;;;;36.00;20.43;;;;;;;4.52;75.02;99245.51;1717027;80;21013;-76
2020/12/04 10:33:32;;;;;;;32.15;19.35;;;;;;;4.54;75.18;99242.30;1727584;81;28211;-76
2020/12/04 10:36:02;;;;;;;33.75;18.87;;;;;;;4.65;75.02;99243.44;1724176;81;26613;-75
2020/12/04 10:38:29;;;;;;;31.80;17.57;;;;;;;4.57;74.94;99251.16;1692602;80;21274;-76
2020/12/04 10:40:55;;;;;;;31.77;18.05;;;;;;;4.57;74.96;99245.94;1728879;80;21215;-76
2020/12/04 10:43:21;;;;;;;32.00;18.05;;;;;;;4.64;74.94;99257.47;1728579;80;21160;-76
2020/12/04 10:45:48;;;;;;;33.28;18.40;;;;;;;4.68;74.68;99251.00;1720571;80;28250;-78
2020/12/04 10:48:14;;;;;;;30.67;18.23;;;;;;;4.80;74.50;99256.91;1697738;80;21168;-76
2020/12/04 10:50:40;;;;;;;31.35;18.67;;;;;;;4.86;74.10;99252.88;1722207;80;21958;-76
2020/12/04 10:53:06;;;;;;;32.28;19.07;;;;;;;4.81;74.24;99255.11;1729259;81;21132;-76
2020/12/04 10:55:32;;;;;;;33.58;18.80;;;;;;;4.86;74.21;99250.27;1728409;80;25535;-77
2020/12/04 10:57:58;;;;;;;32.75;18.27;;;;;;;4.91;74.00;99253.30;1728843;80;28341;-77
2020/12/04 11:00:23;;;;;;;32.35;18.42;;;;;;;4.90;74.07;99243.80;1727513;80;26637;-76
2020/12/04 11:02:54;;;;;;;30.80;18.57;;;;;;;4.79;74.17;99233.52;1712021;81;21933;-77
2020/12/04 11:08:02;;;;;;;30.37;18.67;;;;;;;4.90;73.97;99228.59;1727527;80;21231;-84
2020/12/04 11:10:28;;;;;;;31.23;18.17;;;;;;;4.77;74.25;99212.73;1725461;80;28831;-79
2020/12/04 11:12:53;;;;;;;33.15;19.67;;;;;;;4.75;74.50;99200.25;1734120;80;21105;-80
2020/12/04 11:15:19;;;;;;;31.20;18.42;;;;;;;4.80;74.41;99197.21;1732925;80;21944;-79
2020/12/04 11:17:45;;;;;;;31.87;16.75;;;;;;;4.78;74.46;99197.36;1726049;80;26014;-78
2020/12/04 11:20:11;;;;;;;31.17;17.15;;;;;;;4.83;74.34;99195.62;1731059;80;25262;-79
2020/12/04 11:22:37;;;;;;;29.65;17.85;;;;;;;4.91;74.29;99200.98;1726728;80;21005;-76
2020/12/04 11:25:04;;;;;;;31.52;17.85;;;;;;;4.92;74.00;99207.84;1727948;80;21964;-75
2020/12/04 11:27:29;;;;;;;32.60;18.35;;;;;;;4.89;73.96;99198.97;1723000;80;21196;-76
2020/12/04 11:29:55;;;;;;;28.90;17.77;;;;;;;4.91;74.06;99197.05;1725243;80;26082;-76
2020/12/04 11:32:21;;;;;;;31.27;18.10;;;;;;;4.94;74.13;99199.39;1718420;80;26092;-77
2020/12/04 11:34:47;;;;;;;28.50;17.15;;;;;;;4.89;74.14;99194.23;1731030;80;28616;-77